sensor_id;sensor_type;location;lat;lon;timestamp;P1;durP1;ratioP1;P2;durP2;ratioP2
36745;SDS011;22715;52.182;21.206;2022-08-03T00:00:00;5.90;;;5.32;;
36745;SDS011;22715;52.182;21.206;2022-08-03T00:02:26;8.15;;;5.97;;
36745;SDS011;22715;52.182;21.206;2022-08-03T00:04:51;6.65;;;5.20;;
36745;SDS011;22715;52.182;21.206;2022-08-03T00:07:17;6.13;;;5.53;;
36745;SDS011;22715;52.182;21.206;2022-08-03T00:09:42;7.07;;;4.55;;
36745;SDS011;22715;52.182;21.206;2022-08-03T00:12:08;8.38;;;5.90;;
36745;SDS011;22715;52.182;21.206;2022-08-03T00:14:33;7.88;;;6.25;;
36745;SDS011;22715;52.182;21.206;2022-08-03T00:16:58;8.60;;;6.05;;
36745;SDS011;22715;52.182;21.206;2022-08-03T00:19:24;10.15;;;5.60;;
36745;SDS011;22715;52.182;21.206;2022-08-03T00:21:49;6.13;;;5.55;;
36745;SDS011;22715;52.182;21.206;2022-08-03T00:24:14;7.13;;;6.20;;
36745;SDS011;22715;52.182;21.206;2022-08-03T00:26:40;6.45;;;5.63;;
36745;SDS011;22715;52.182;21.206;2022-08-03T00:29:05;9.30;;;5.43;;
36745;SDS011;22715;52.182;21.206;2022-08-03T00:31:30;6.32;;;5.55;;
36745;SDS011;22715;52.182;21.206;2022-08-03T00:33:56;9.00;;;6.95;;
36745;SDS011;22715;52.182;21.206;2022-08-03T00:36:21;7.38;;;6.03;;
36745;SDS011;22715;52.182;21.206;2022-08-03T00:38:46;8.30;;;6.70;;
36745;SDS011;22715;52.182;21.206;2022-08-03T00:41:12;7.05;;;6.35;;
36745;SDS011;22715;52.182;21.206;2022-08-03T00:43:37;9.45;;;7.05;;
36745;SDS011;22715;52.182;21.206;2022-08-03T00:46:02;9.07;;;5.82;;
36745;SDS011;22715;52.182;21.206;2022-08-03T00:48:28;9.98;;;6.30;;
36745;SDS011;22715;52.182;21.206;2022-08-03T00:50:53;10.82;;;6.75;;
36745;SDS011;22715;52.182;21.206;2022-08-03T00:53:18;9.30;;;7.10;;
36745;SDS011;22715;52.182;21.206;2022-08-03T00:55:44;10.35;;;8.30;;
36745;SDS011;22715;52.182;21.206;2022-08-03T00:58:09;8.70;;;7.15;;
36745;SDS011;22715;52.182;21.206;2022-08-03T01:00:36;9.02;;;7.60;;
36745;SDS011;22715;52.182;21.206;2022-08-03T01:03:06;13.52;;;9.25;;
36745;SDS011;22715;52.182;21.206;2022-08-03T01:11:04;10.45;;;7.75;;
36745;SDS011;22715;52.182;21.206;2022-08-03T01:13:37;13.85;;;9.30;;
36745;SDS011;22715;52.182;21.206;2022-08-03T01:16:07;8.45;;;7.65;;
36745;SDS011;22715;52.182;21.206;2022-08-03T01:18:50;11.48;;;8.35;;
36745;SDS011;22715;52.182;21.206;2022-08-03T01:21:20;12.23;;;7.53;;
36745;SDS011;22715;52.182;21.206;2022-08-03T01:31:13;11.43;;;9.07;;
36745;SDS011;22715;52.182;21.206;2022-08-03T01:33:41;11.60;;;8.50;;
36745;SDS011;22715;52.182;21.206;2022-08-03T01:36:13;13.45;;;8.75;;
36745;SDS011;22715;52.182;21.206;2022-08-03T01:38:40;13.80;;;9.57;;
36745;SDS011;22715;52.182;21.206;2022-08-03T01:41:08;10.95;;;7.85;;
36745;SDS011;22715;52.182;21.206;2022-08-03T01:43:34;17.38;;;8.43;;
36745;SDS011;22715;52.182;21.206;2022-08-03T01:46:17;11.43;;;7.47;;
36745;SDS011;22715;52.182;21.206;2022-08-03T01:48:45;9.18;;;7.57;;
36745;SDS011;22715;52.182;21.206;2022-08-03T01:51:11;10.20;;;8.27;;
36745;SDS011;22715;52.182;21.206;2022-08-03T01:53:38;9.55;;;8.05;;
36745;SDS011;22715;52.182;21.206;2022-08-03T01:56:06;10.98;;;8.15;;
36745;SDS011;22715;52.182;21.206;2022-08-03T01:58:33;10.82;;;8.70;;
36745;SDS011;22715;52.182;21.206;2022-08-03T02:01:00;8.93;;;6.93;;
36745;SDS011;22715;52.182;21.206;2022-08-03T02:03:27;8.35;;;7.43;;
36745;SDS011;22715;52.182;21.206;2022-08-03T02:05:53;9.68;;;6.70;;
36745;SDS011;22715;52.182;21.206;2022-08-03T02:08:19;7.60;;;6.90;;
36745;SDS011;22715;52.182;21.206;2022-08-03T02:10:44;9.50;;;6.82;;
36745;SDS011;22715;52.182;21.206;2022-08-03T02:13:10;8.30;;;6.82;;
36745;SDS011;22715;52.182;21.206;2022-08-03T02:15:38;8.82;;;6.55;;
36745;SDS011;22715;52.182;21.206;2022-08-03T02:18:04;10.18;;;8.73;;
36745;SDS011;22715;52.182;21.206;2022-08-03T02:20:29;9.48;;;6.07;;
36745;SDS011;22715;52.182;21.206;2022-08-03T02:22:57;10.40;;;7.82;;
36745;SDS011;22715;52.182;21.206;2022-08-03T02:25:22;8.80;;;6.28;;
36745;SDS011;22715;52.182;21.206;2022-08-03T02:27:50;10.05;;;7.30;;
36745;SDS011;22715;52.182;21.206;2022-08-03T02:30:16;7.90;;;7.05;;
36745;SDS011;22715;52.182;21.206;2022-08-03T02:32:50;9.60;;;7.05;;
36745;SDS011;22715;52.182;21.206;2022-08-03T02:35:17;9.80;;;6.43;;
36745;SDS011;22715;52.182;21.206;2022-08-03T02:37:51;8.18;;;6.70;;
36745;SDS011;22715;52.182;21.206;2022-08-03T02:40:16;7.82;;;6.93;;
36745;SDS011;22715;52.182;21.206;2022-08-03T02:42:43;12.07;;;6.55;;
36745;SDS011;22715;52.182;21.206;2022-08-03T02:45:10;11.88;;;9.05;;
36745;SDS011;22715;52.182;21.206;2022-08-03T02:47:41;9.45;;;7.07;;
36745;SDS011;22715;52.182;21.206;2022-08-03T02:50:08;11.10;;;7.32;;
36745;SDS011;22715;52.182;21.206;2022-08-03T02:52:34;11.00;;;6.88;;
36745;SDS011;22715;52.182;21.206;2022-08-03T02:55:01;12.20;;;8.07;;
36745;SDS011;22715;52.182;21.206;2022-08-03T02:57:27;8.38;;;7.15;;
36745;SDS011;22715;52.182;21.206;2022-08-03T03:00:07;9.70;;;7.25;;
36745;SDS011;22715;52.182;21.206;2022-08-03T03:02:33;9.25;;;7.05;;
36745;SDS011;22715;52.182;21.206;2022-08-03T03:04:59;12.20;;;7.30;;
36745;SDS011;22715;52.182;21.206;2022-08-03T03:07:25;9.10;;;6.82;;
36745;SDS011;22715;52.182;21.206;2022-08-03T03:09:51;11.15;;;7.55;;
36745;SDS011;22715;52.182;21.206;2022-08-03T03:12:17;10.70;;;8.65;;
36745;SDS011;22715;52.182;21.206;2022-08-03T03:14:42;8.73;;;6.32;;
36745;SDS011;22715;52.182;21.206;2022-08-03T03:17:10;8.50;;;7.30;;
36745;SDS011;22715;52.182;21.206;2022-08-03T03:19:36;7.10;;;6.05;;
36745;SDS011;22715;52.182;21.206;2022-08-03T03:22:03;9.93;;;8.10;;
36745;SDS011;22715;52.182;21.206;2022-08-03T03:24:30;8.63;;;6.85;;
36745;SDS011;22715;52.182;21.206;2022-08-03T03:26:56;8.25;;;7.45;;
36745;SDS011;22715;52.182;21.206;2022-08-03T03:29:21;9.07;;;7.53;;
36745;SDS011;22715;52.182;21.206;2022-08-03T03:31:47;8.15;;;7.32;;
36745;SDS011;22715;52.182;21.206;2022-08-03T03:34:13;7.88;;;6.38;;
36745;SDS011;22715;52.182;21.206;2022-08-03T03:36:39;8.80;;;7.70;;
36745;SDS011;22715;52.182;21.206;2022-08-03T03:39:04;8.95;;;8.05;;
36745;SDS011;22715;52.182;21.206;2022-08-03T03:41:29;8.95;;;6.97;;
36745;SDS011;22715;52.182;21.206;2022-08-03T03:43:55;8.27;;;6.50;;
36745;SDS011;22715;52.182;21.206;2022-08-03T03:46:20;13.13;;;9.02;;
36745;SDS011;22715;52.182;21.206;2022-08-03T03:48:46;8.50;;;7.40;;
36745;SDS011;22715;52.182;21.206;2022-08-03T03:51:11;10.07;;;7.68;;
36745;SDS011;22715;52.182;21.206;2022-08-03T03:53:36;8.93;;;7.32;;
36745;SDS011;22715;52.182;21.206;2022-08-03T03:56:02;10.60;;;7.05;;
36745;SDS011;22715;52.182;21.206;2022-08-03T03:58:27;8.80;;;8.00;;
36745;SDS011;22715;52.182;21.206;2022-08-03T04:00:53;10.18;;;8.63;;
36745;SDS011;22715;52.182;21.206;2022-08-03T04:03:18;11.07;;;8.23;;
36745;SDS011;22715;52.182;21.206;2022-08-03T04:05:46;9.30;;;8.38;;
36745;SDS011;22715;52.182;21.206;2022-08-03T04:08:29;8.20;;;7.35;;
36745;SDS011;22715;52.182;21.206;2022-08-03T04:11:15;10.13;;;8.55;;
36745;SDS011;22715;52.182;21.206;2022-08-03T04:13:54;8.80;;;7.10;;
36745;SDS011;22715;52.182;21.206;2022-08-03T04:16:20;10.15;;;7.88;;
36745;SDS011;22715;52.182;21.206;2022-08-03T04:18:48;8.88;;;7.63;;
36745;SDS011;22715;52.182;21.206;2022-08-03T04:21:15;10.63;;;8.93;;
36745;SDS011;22715;52.182;21.206;2022-08-03T04:23:43;9.10;;;8.20;;
36745;SDS011;22715;52.182;21.206;2022-08-03T04:26:10;9.43;;;8.40;;
36745;SDS011;22715;52.182;21.206;2022-08-03T04:28:42;10.32;;;8.80;;
36745;SDS011;22715;52.182;21.206;2022-08-03T04:31:09;9.18;;;8.27;;
36745;SDS011;22715;52.182;21.206;2022-08-03T04:33:37;11.35;;;8.48;;
36745;SDS011;22715;52.182;21.206;2022-08-03T04:36:04;11.38;;;9.85;;
36745;SDS011;22715;52.182;21.206;2022-08-03T04:38:30;11.25;;;9.50;;
36745;SDS011;22715;52.182;21.206;2022-08-03T04:40:56;16.63;;;12.45;;
36745;SDS011;22715;52.182;21.206;2022-08-03T04:43:23;19.95;;;13.98;;
36745;SDS011;22715;52.182;21.206;2022-08-03T04:45:49;14.90;;;12.70;;
36745;SDS011;22715;52.182;21.206;2022-08-03T04:48:15;13.82;;;12.10;;
36745;SDS011;22715;52.182;21.206;2022-08-03T04:50:41;14.20;;;12.00;;
36745;SDS011;22715;52.182;21.206;2022-08-03T04:53:07;12.98;;;11.27;;
36745;SDS011;22715;52.182;21.206;2022-08-03T04:55:33;13.50;;;11.40;;
36745;SDS011;22715;52.182;21.206;2022-08-03T04:58:05;12.70;;;10.85;;
36745;SDS011;22715;52.182;21.206;2022-08-03T05:00:30;12.98;;;10.52;;
36745;SDS011;22715;52.182;21.206;2022-08-03T05:02:55;12.88;;;9.82;;
36745;SDS011;22715;52.182;21.206;2022-08-03T05:05:21;14.77;;;10.35;;
36745;SDS011;22715;52.182;21.206;2022-08-03T05:07:46;11.55;;;8.70;;
36745;SDS011;22715;52.182;21.206;2022-08-03T05:10:12;9.25;;;8.20;;
36745;SDS011;22715;52.182;21.206;2022-08-03T05:12:38;9.07;;;7.43;;
36745;SDS011;22715;52.182;21.206;2022-08-03T05:15:04;9.40;;;8.40;;
36745;SDS011;22715;52.182;21.206;2022-08-03T05:17:30;8.60;;;7.78;;
36745;SDS011;22715;52.182;21.206;2022-08-03T05:19:55;10.23;;;7.00;;
36745;SDS011;22715;52.182;21.206;2022-08-03T05:22:21;9.52;;;8.38;;
36745;SDS011;22715;52.182;21.206;2022-08-03T05:24:46;8.95;;;8.05;;
36745;SDS011;22715;52.182;21.206;2022-08-03T05:27:12;11.68;;;8.45;;
36745;SDS011;22715;52.182;21.206;2022-08-03T05:29:43;9.45;;;8.05;;
36745;SDS011;22715;52.182;21.206;2022-08-03T05:32:08;9.60;;;7.60;;
36745;SDS011;22715;52.182;21.206;2022-08-03T05:34:34;8.50;;;7.15;;
36745;SDS011;22715;52.182;21.206;2022-08-03T05:36:59;9.82;;;8.70;;
36745;SDS011;22715;52.182;21.206;2022-08-03T05:39:25;9.77;;;7.97;;
36745;SDS011;22715;52.182;21.206;2022-08-03T05:41:50;9.25;;;6.93;;
36745;SDS011;22715;52.182;21.206;2022-08-03T05:44:15;8.93;;;8.00;;
36745;SDS011;22715;52.182;21.206;2022-08-03T05:46:41;9.63;;;7.85;;
36745;SDS011;22715;52.182;21.206;2022-08-03T05:49:06;8.80;;;7.43;;
36745;SDS011;22715;52.182;21.206;2022-08-03T05:51:31;9.43;;;6.53;;
36745;SDS011;22715;52.182;21.206;2022-08-03T05:53:57;9.40;;;7.90;;
36745;SDS011;22715;52.182;21.206;2022-08-03T05:56:22;8.60;;;7.72;;
36745;SDS011;22715;52.182;21.206;2022-08-03T05:58:49;10.15;;;7.25;;
36745;SDS011;22715;52.182;21.206;2022-08-03T06:01:15;11.95;;;8.18;;
36745;SDS011;22715;52.182;21.206;2022-08-03T06:03:41;10.88;;;7.95;;
36745;SDS011;22715;52.182;21.206;2022-08-03T06:06:06;9.60;;;8.63;;
36745;SDS011;22715;52.182;21.206;2022-08-03T06:08:35;10.73;;;9.05;;
36745;SDS011;22715;52.182;21.206;2022-08-03T06:11:00;9.75;;;7.90;;
36745;SDS011;22715;52.182;21.206;2022-08-03T06:13:26;11.38;;;9.15;;
36745;SDS011;22715;52.182;21.206;2022-08-03T06:15:51;13.70;;;9.95;;
36745;SDS011;22715;52.182;21.206;2022-08-03T06:18:16;12.77;;;10.43;;
36745;SDS011;22715;52.182;21.206;2022-08-03T06:20:42;10.63;;;9.05;;
36745;SDS011;22715;52.182;21.206;2022-08-03T06:23:07;14.30;;;9.77;;
36745;SDS011;22715;52.182;21.206;2022-08-03T06:25:32;9.02;;;8.10;;
36745;SDS011;22715;52.182;21.206;2022-08-03T06:27:58;10.95;;;8.82;;
36745;SDS011;22715;52.182;21.206;2022-08-03T06:30:24;9.43;;;8.18;;
36745;SDS011;22715;52.182;21.206;2022-08-03T06:32:49;11.13;;;9.48;;
36745;SDS011;22715;52.182;21.206;2022-08-03T06:35:15;12.77;;;9.25;;
36745;SDS011;22715;52.182;21.206;2022-08-03T06:37:44;12.02;;;9.15;;
36745;SDS011;22715;52.182;21.206;2022-08-03T06:40:13;10.57;;;9.43;;
36745;SDS011;22715;52.182;21.206;2022-08-03T06:42:41;11.32;;;9.52;;
36745;SDS011;22715;52.182;21.206;2022-08-03T06:45:08;11.45;;;9.15;;
36745;SDS011;22715;52.182;21.206;2022-08-03T06:47:37;10.07;;;9.07;;
36745;SDS011;22715;52.182;21.206;2022-08-03T06:50:06;10.73;;;9.73;;
36745;SDS011;22715;52.182;21.206;2022-08-03T06:52:31;11.18;;;10.18;;
36745;SDS011;22715;52.182;21.206;2022-08-03T06:54:57;11.45;;;8.60;;
36745;SDS011;22715;52.182;21.206;2022-08-03T06:57:22;11.18;;;10.10;;
36745;SDS011;22715;52.182;21.206;2022-08-03T06:59:47;11.25;;;9.30;;
36745;SDS011;22715;52.182;21.206;2022-08-03T07:02:13;11.15;;;10.00;;
36745;SDS011;22715;52.182;21.206;2022-08-03T07:04:38;10.10;;;9.20;;
36745;SDS011;22715;52.182;21.206;2022-08-03T07:07:04;10.05;;;9.15;;
36745;SDS011;22715;52.182;21.206;2022-08-03T07:09:29;9.60;;;8.63;;
36745;SDS011;22715;52.182;21.206;2022-08-03T07:11:55;10.85;;;8.38;;
36745;SDS011;22715;52.182;21.206;2022-08-03T07:14:21;11.80;;;10.57;;
36745;SDS011;22715;52.182;21.206;2022-08-03T07:16:46;12.48;;;9.93;;
36745;SDS011;22715;52.182;21.206;2022-08-03T07:19:12;15.38;;;10.35;;
36745;SDS011;22715;52.182;21.206;2022-08-03T07:21:40;11.70;;;9.73;;
36745;SDS011;22715;52.182;21.206;2022-08-03T07:24:05;14.38;;;11.57;;
36745;SDS011;22715;52.182;21.206;2022-08-03T07:26:31;14.68;;;10.93;;
36745;SDS011;22715;52.182;21.206;2022-08-03T07:28:56;13.27;;;11.88;;
36745;SDS011;22715;52.182;21.206;2022-08-03T07:31:21;11.13;;;9.88;;
36745;SDS011;22715;52.182;21.206;2022-08-03T07:33:47;12.10;;;10.80;;
36745;SDS011;22715;52.182;21.206;2022-08-03T07:36:12;12.35;;;11.05;;
36745;SDS011;22715;52.182;21.206;2022-08-03T07:38:37;12.63;;;11.00;;
36745;SDS011;22715;52.182;21.206;2022-08-03T07:41:03;14.25;;;11.55;;
36745;SDS011;22715;52.182;21.206;2022-08-03T07:43:28;14.07;;;12.45;;
36745;SDS011;22715;52.182;21.206;2022-08-03T07:45:53;13.90;;;12.50;;
36745;SDS011;22715;52.182;21.206;2022-08-03T07:48:19;12.63;;;11.45;;
36745;SDS011;22715;52.182;21.206;2022-08-03T07:50:44;12.23;;;11.07;;
36745;SDS011;22715;52.182;21.206;2022-08-03T07:53:10;13.15;;;11.18;;
36745;SDS011;22715;52.182;21.206;2022-08-03T07:55:35;15.65;;;12.40;;
36745;SDS011;22715;52.182;21.206;2022-08-03T07:58:10;13.15;;;11.48;;
36745;SDS011;22715;52.182;21.206;2022-08-03T08:00:39;13.40;;;12.10;;
36745;SDS011;22715;52.182;21.206;2022-08-03T08:03:05;14.88;;;12.68;;
36745;SDS011;22715;52.182;21.206;2022-08-03T08:05:30;14.48;;;13.00;;
36745;SDS011;22715;52.182;21.206;2022-08-03T08:07:56;15.65;;;11.75;;
36745;SDS011;22715;52.182;21.206;2022-08-03T08:10:21;12.93;;;10.98;;
36745;SDS011;22715;52.182;21.206;2022-08-03T08:12:47;13.52;;;11.85;;
36745;SDS011;22715;52.182;21.206;2022-08-03T08:15:12;12.57;;;11.02;;
36745;SDS011;22715;52.182;21.206;2022-08-03T08:17:42;13.90;;;12.38;;
36745;SDS011;22715;52.182;21.206;2022-08-03T08:20:07;11.25;;;10.10;;
36745;SDS011;22715;52.182;21.206;2022-08-03T08:22:33;11.88;;;10.68;;
36745;SDS011;22715;52.182;21.206;2022-08-03T08:24:58;13.88;;;12.48;;
36745;SDS011;22715;52.182;21.206;2022-08-03T08:27:24;11.68;;;10.55;;
36745;SDS011;22715;52.182;21.206;2022-08-03T08:29:50;12.05;;;10.75;;
36745;SDS011;22715;52.182;21.206;2022-08-03T08:32:15;11.18;;;10.07;;
36745;SDS011;22715;52.182;21.206;2022-08-03T08:34:41;11.52;;;9.57;;
36745;SDS011;22715;52.182;21.206;2022-08-03T08:37:06;12.25;;;9.57;;
36745;SDS011;22715;52.182;21.206;2022-08-03T08:39:31;11.07;;;9.98;;
36745;SDS011;22715;52.182;21.206;2022-08-03T08:41:57;12.55;;;10.13;;
36745;SDS011;22715;52.182;21.206;2022-08-03T08:44:22;12.57;;;9.75;;
36745;SDS011;22715;52.182;21.206;2022-08-03T08:46:47;9.10;;;8.30;;
36745;SDS011;22715;52.182;21.206;2022-08-03T08:49:15;8.20;;;7.32;;
36745;SDS011;22715;52.182;21.206;2022-08-03T08:51:42;9.73;;;8.73;;
36745;SDS011;22715;52.182;21.206;2022-08-03T08:54:08;13.50;;;9.27;;
36745;SDS011;22715;52.182;21.206;2022-08-03T08:56:34;6.72;;;6.18;;
36745;SDS011;22715;52.182;21.206;2022-08-03T09:01:35;7.43;;;6.55;;
36745;SDS011;22715;52.182;21.206;2022-08-03T09:04:01;6.57;;;5.97;;
36745;SDS011;22715;52.182;21.206;2022-08-03T09:06:33;7.47;;;6.78;;
36745;SDS011;22715;52.182;21.206;2022-08-03T09:08:58;9.05;;;7.22;;
36745;SDS011;22715;52.182;21.206;2022-08-03T09:11:24;7.07;;;5.80;;
36745;SDS011;22715;52.182;21.206;2022-08-03T09:13:50;6.65;;;5.85;;
36745;SDS011;22715;52.182;21.206;2022-08-03T09:16:18;8.07;;;5.70;;
36745;SDS011;22715;52.182;21.206;2022-08-03T09:18:48;6.55;;;5.47;;
36745;SDS011;22715;52.182;21.206;2022-08-03T09:21:15;6.00;;;5.38;;
36745;SDS011;22715;52.182;21.206;2022-08-03T09:23:45;6.20;;;5.10;;
36745;SDS011;22715;52.182;21.206;2022-08-03T09:26:10;10.40;;;6.30;;
36745;SDS011;22715;52.182;21.206;2022-08-03T09:28:36;7.75;;;4.85;;
36745;SDS011;22715;52.182;21.206;2022-08-03T09:31:01;8.20;;;6.45;;
36745;SDS011;22715;52.182;21.206;2022-08-03T09:33:27;6.70;;;6.10;;
36745;SDS011;22715;52.182;21.206;2022-08-03T09:35:52;5.97;;;5.38;;
36745;SDS011;22715;52.182;21.206;2022-08-03T09:40:48;5.65;;;5.25;;
36745;SDS011;22715;52.182;21.206;2022-08-03T09:43:13;11.07;;;5.50;;
36745;SDS011;22715;52.182;21.206;2022-08-03T09:45:39;5.93;;;5.43;;
36745;SDS011;22715;52.182;21.206;2022-08-03T09:50:52;6.30;;;5.10;;
36745;SDS011;22715;52.182;21.206;2022-08-03T09:53:17;7.30;;;5.07;;
36745;SDS011;22715;52.182;21.206;2022-08-03T09:58:43;5.45;;;4.85;;
36745;SDS011;22715;52.182;21.206;2022-08-03T10:01:09;5.80;;;4.95;;
36745;SDS011;22715;52.182;21.206;2022-08-03T10:03:35;5.10;;;4.70;;
36745;SDS011;22715;52.182;21.206;2022-08-03T10:06:17;5.55;;;5.05;;
36745;SDS011;22715;52.182;21.206;2022-08-03T10:08:46;4.63;;;4.18;;
36745;SDS011;22715;52.182;21.206;2022-08-03T10:11:28;5.60;;;5.03;;
36745;SDS011;22715;52.182;21.206;2022-08-03T10:13:54;5.90;;;4.32;;
36745;SDS011;22715;52.182;21.206;2022-08-03T10:16:19;6.65;;;4.78;;
36745;SDS011;22715;52.182;21.206;2022-08-03T10:18:45;5.25;;;4.28;;
36745;SDS011;22715;52.182;21.206;2022-08-03T10:21:10;5.00;;;4.32;;
36745;SDS011;22715;52.182;21.206;2022-08-03T10:23:37;5.22;;;4.68;;
36745;SDS011;22715;52.182;21.206;2022-08-03T10:26:03;5.32;;;4.32;;
36745;SDS011;22715;52.182;21.206;2022-08-03T10:28:34;5.40;;;4.90;;
36745;SDS011;22715;52.182;21.206;2022-08-03T10:31:00;5.10;;;4.60;;
36745;SDS011;22715;52.182;21.206;2022-08-03T10:33:29;6.00;;;4.13;;
36745;SDS011;22715;52.182;21.206;2022-08-03T10:35:56;5.63;;;4.25;;
36745;SDS011;22715;52.182;21.206;2022-08-03T10:41:22;5.35;;;4.85;;
36745;SDS011;22715;52.182;21.206;2022-08-03T10:43:49;4.32;;;3.92;;
36745;SDS011;22715;52.182;21.206;2022-08-03T10:46:18;4.03;;;3.35;;
36745;SDS011;22715;52.182;21.206;2022-08-03T10:48:44;6.28;;;3.67;;
36745;SDS011;22715;52.182;21.206;2022-08-03T10:51:10;4.35;;;3.47;;
36745;SDS011;22715;52.182;21.206;2022-08-03T10:53:39;5.25;;;3.45;;
36745;SDS011;22715;52.182;21.206;2022-08-03T10:58:53;4.82;;;4.35;;
36745;SDS011;22715;52.182;21.206;2022-08-03T11:01:47;5.13;;;4.63;;
36745;SDS011;22715;52.182;21.206;2022-08-03T11:06:31;5.45;;;4.95;;
36745;SDS011;22715;52.182;21.206;2022-08-03T11:11:34;4.85;;;4.45;;
36745;SDS011;22715;52.182;21.206;2022-08-03T11:14:10;4.15;;;3.78;;
36745;SDS011;22715;52.182;21.206;2022-08-03T11:16:39;5.25;;;4.10;;
36745;SDS011;22715;52.182;21.206;2022-08-03T11:19:09;10.93;;;5.13;;
36745;SDS011;22715;52.182;21.206;2022-08-03T11:35:20;6.93;;;4.63;;
36745;SDS011;22715;52.182;21.206;2022-08-03T11:40:39;4.53;;;4.13;;
36745;SDS011;22715;52.182;21.206;2022-08-03T11:43:09;5.22;;;4.50;;
36745;SDS011;22715;52.182;21.206;2022-08-03T11:45:35;6.70;;;4.80;;
36745;SDS011;22715;52.182;21.206;2022-08-03T11:48:21;5.97;;;4.50;;
36745;SDS011;22715;52.182;21.206;2022-08-03T11:50:45;5.03;;;4.63;;
36745;SDS011;22715;52.182;21.206;2022-08-03T11:53:15;5.03;;;4.53;;
36745;SDS011;22715;52.182;21.206;2022-08-03T11:55:41;5.05;;;4.53;;
36745;SDS011;22715;52.182;21.206;2022-08-03T11:58:13;5.20;;;4.72;;
36745;SDS011;22715;52.182;21.206;2022-08-03T12:00:39;7.28;;;4.68;;
36745;SDS011;22715;52.182;21.206;2022-08-03T12:03:05;5.63;;;5.00;;
36745;SDS011;22715;52.182;21.206;2022-08-03T12:05:34;4.78;;;4.38;;
36745;SDS011;22715;52.182;21.206;2022-08-03T12:08:00;7.63;;;4.95;;
36745;SDS011;22715;52.182;21.206;2022-08-03T12:10:25;8.25;;;4.88;;
36745;SDS011;22715;52.182;21.206;2022-08-03T12:12:58;31.75;;;9.77;;
36745;SDS011;22715;52.182;21.206;2022-08-03T12:15:27;7.22;;;5.35;;
36745;SDS011;22715;52.182;21.206;2022-08-03T12:17:53;6.07;;;5.00;;
36745;SDS011;22715;52.182;21.206;2022-08-03T12:20:23;8.55;;;5.50;;
36745;SDS011;22715;52.182;21.206;2022-08-03T12:22:48;5.10;;;4.53;;
36745;SDS011;22715;52.182;21.206;2022-08-03T12:25:21;7.32;;;4.82;;
36745;SDS011;22715;52.182;21.206;2022-08-03T12:27:47;5.82;;;4.05;;
36745;SDS011;22715;52.182;21.206;2022-08-03T12:30:12;6.25;;;4.60;;
36745;SDS011;22715;52.182;21.206;2022-08-03T12:32:38;6.05;;;5.55;;
36745;SDS011;22715;52.182;21.206;2022-08-03T12:35:06;4.90;;;4.50;;
36745;SDS011;22715;52.182;21.206;2022-08-03T12:37:32;4.43;;;4.03;;
36745;SDS011;22715;52.182;21.206;2022-08-03T12:39:59;4.60;;;4.20;;
36745;SDS011;22715;52.182;21.206;2022-08-03T12:42:35;6.97;;;5.13;;
36745;SDS011;22715;52.182;21.206;2022-08-03T12:50:22;4.65;;;4.25;;
36745;SDS011;22715;52.182;21.206;2022-08-03T12:52:48;4.30;;;3.83;;
36745;SDS011;22715;52.182;21.206;2022-08-03T12:55:18;6.50;;;4.72;;
36745;SDS011;22715;52.182;21.206;2022-08-03T12:57:43;5.82;;;5.18;;
36745;SDS011;22715;52.182;21.206;2022-08-03T13:00:10;4.68;;;4.28;;
36745;SDS011;22715;52.182;21.206;2022-08-03T13:02:36;5.13;;;4.63;;
36745;SDS011;22715;52.182;21.206;2022-08-03T13:05:08;26.20;;;8.77;;
36745;SDS011;22715;52.182;21.206;2022-08-03T13:07:38;11.57;;;5.78;;
36745;SDS011;22715;52.182;21.206;2022-08-03T13:12:29;39.97;;;12.00;;
36745;SDS011;22715;52.182;21.206;2022-08-03T13:14:56;6.88;;;4.55;;
36745;SDS011;22715;52.182;21.206;2022-08-03T13:17:22;6.65;;;4.72;;
36745;SDS011;22715;52.182;21.206;2022-08-03T13:19:47;8.02;;;5.13;;
36745;SDS011;22715;52.182;21.206;2022-08-03T13:22:14;4.80;;;4.45;;
36745;SDS011;22715;52.182;21.206;2022-08-03T13:24:39;4.85;;;4.43;;
36745;SDS011;22715;52.182;21.206;2022-08-03T13:27:13;4.68;;;4.32;;
36745;SDS011;22715;52.182;21.206;2022-08-03T13:29:38;4.25;;;3.85;;
36745;SDS011;22715;52.182;21.206;2022-08-03T13:32:05;4.93;;;4.43;;
36745;SDS011;22715;52.182;21.206;2022-08-03T13:34:31;5.05;;;4.55;;
36745;SDS011;22715;52.182;21.206;2022-08-03T13:36:56;5.28;;;4.38;;
36745;SDS011;22715;52.182;21.206;2022-08-03T13:39:31;4.30;;;3.92;;
36745;SDS011;22715;52.182;21.206;2022-08-03T13:41:57;5.13;;;4.72;;
36745;SDS011;22715;52.182;21.206;2022-08-03T13:44:27;4.57;;;4.22;;
36745;SDS011;22715;52.182;21.206;2022-08-03T13:46:53;4.50;;;4.10;;
36745;SDS011;22715;52.182;21.206;2022-08-03T13:49:41;5.78;;;4.47;;
36745;SDS011;22715;52.182;21.206;2022-08-03T13:52:10;5.15;;;4.32;;
36745;SDS011;22715;52.182;21.206;2022-08-03T13:54:35;7.10;;;4.47;;
36745;SDS011;22715;52.182;21.206;2022-08-03T13:57:01;4.53;;;4.07;;
36745;SDS011;22715;52.182;21.206;2022-08-03T13:59:26;6.10;;;4.50;;
36745;SDS011;22715;52.182;21.206;2022-08-03T14:01:52;6.65;;;4.10;;
36745;SDS011;22715;52.182;21.206;2022-08-03T14:04:18;4.95;;;4.05;;
36745;SDS011;22715;52.182;21.206;2022-08-03T14:06:43;6.68;;;4.15;;
36745;SDS011;22715;52.182;21.206;2022-08-03T14:09:16;8.18;;;5.78;;
36745;SDS011;22715;52.182;21.206;2022-08-03T14:11:42;5.00;;;4.57;;
36745;SDS011;22715;52.182;21.206;2022-08-03T14:14:07;4.65;;;4.25;;
36745;SDS011;22715;52.182;21.206;2022-08-03T14:16:33;4.07;;;3.78;;
36745;SDS011;22715;52.182;21.206;2022-08-03T14:18:58;5.13;;;4.00;;
36745;SDS011;22715;52.182;21.206;2022-08-03T14:21:23;5.25;;;4.38;;
36745;SDS011;22715;52.182;21.206;2022-08-03T14:23:49;5.00;;;4.50;;
36745;SDS011;22715;52.182;21.206;2022-08-03T14:26:14;5.07;;;4.38;;
36745;SDS011;22715;52.182;21.206;2022-08-03T14:28:42;10.85;;;4.47;;
36745;SDS011;22715;52.182;21.206;2022-08-03T14:31:07;4.55;;;4.15;;
36745;SDS011;22715;52.182;21.206;2022-08-03T14:33:32;5.30;;;4.20;;
36745;SDS011;22715;52.182;21.206;2022-08-03T14:35:58;5.40;;;3.95;;
36745;SDS011;22715;52.182;21.206;2022-08-03T14:38:23;5.00;;;4.60;;
36745;SDS011;22715;52.182;21.206;2022-08-03T14:40:49;5.45;;;4.95;;
36745;SDS011;22715;52.182;21.206;2022-08-03T14:43:14;5.13;;;4.65;;
36745;SDS011;22715;52.182;21.206;2022-08-03T14:45:41;4.32;;;3.92;;
36745;SDS011;22715;52.182;21.206;2022-08-03T14:48:10;6.30;;;4.13;;
36745;SDS011;22715;52.182;21.206;2022-08-03T14:50:45;3.90;;;3.60;;
36745;SDS011;22715;52.182;21.206;2022-08-03T14:53:10;4.28;;;3.95;;
36745;SDS011;22715;52.182;21.206;2022-08-03T14:55:36;4.60;;;3.50;;
36745;SDS011;22715;52.182;21.206;2022-08-03T14:58:01;4.72;;;4.00;;
36745;SDS011;22715;52.182;21.206;2022-08-03T15:00:30;6.10;;;4.47;;
36745;SDS011;22715;52.182;21.206;2022-08-03T15:02:55;7.03;;;3.50;;
36745;SDS011;22715;52.182;21.206;2022-08-03T15:05:21;6.13;;;3.90;;
36745;SDS011;22715;52.182;21.206;2022-08-03T15:07:46;7.07;;;4.07;;
36745;SDS011;22715;52.182;21.206;2022-08-03T15:10:11;3.97;;;3.72;;
36745;SDS011;22715;52.182;21.206;2022-08-03T15:12:40;3.13;;;2.92;;
36745;SDS011;22715;52.182;21.206;2022-08-03T15:15:05;5.95;;;3.83;;
36745;SDS011;22715;52.182;21.206;2022-08-03T15:17:31;5.70;;;3.78;;
36745;SDS011;22715;52.182;21.206;2022-08-03T15:19:56;3.63;;;3.33;;
36745;SDS011;22715;52.182;21.206;2022-08-03T15:22:21;4.40;;;3.92;;
36745;SDS011;22715;52.182;21.206;2022-08-03T15:24:47;3.92;;;3.30;;